createdAt,value
2023-01-31T00:01:51.739Z,37.63
2023-01-31T00:04:19.074Z,29.15
2023-01-31T00:06:51.557Z,24.95
2023-01-31T00:09:19.471Z,31.85
2023-01-31T00:11:46.914Z,32.80
2023-01-31T00:14:20.660Z,30.63
2023-01-31T00:16:48.365Z,34.70
2023-01-31T00:19:15.920Z,25.48
2023-01-31T00:21:45.138Z,28.55
2023-01-31T00:24:15.848Z,27.23
2023-01-31T00:26:43.460Z,29.75
2023-01-31T00:29:11.181Z,30.33
2023-01-31T00:31:39.778Z,36.47
2023-01-31T00:34:07.534Z,34.75
2023-01-31T00:36:35.989Z,27.50
2023-01-31T00:39:05.725Z,26.85
2023-01-31T00:41:34.580Z,28.83
2023-01-31T00:44:02.252Z,31.20
2023-01-31T00:46:29.850Z,33.20
2023-01-31T00:48:57.993Z,38.40
2023-01-31T00:51:26.852Z,33.17
2023-01-31T00:53:54.987Z,39.65
2023-01-31T00:56:24.003Z,33.45
2023-01-31T00:58:52.028Z,31.00
2023-01-31T01:01:28.182Z,32.08
2023-01-31T01:03:57.328Z,39.97
2023-01-31T01:06:25.400Z,37.15
2023-01-31T01:08:53.579Z,30.48
2023-01-31T01:11:30.008Z,31.48
2023-01-31T01:13:58.613Z,38.47
2023-01-31T01:16:37.447Z,33.38
2023-01-31T01:19:06.942Z,28.17
2023-01-31T01:21:39.434Z,34.63
2023-01-31T01:24:11.355Z,39.80
2023-01-31T01:26:39.781Z,28.05
2023-01-31T01:29:07.253Z,33.08
2023-01-31T01:31:35.145Z,36.83
2023-01-31T01:34:05.972Z,33.33
2023-01-31T01:36:35.960Z,36.63
2023-01-31T01:39:05.185Z,42.22
2023-01-31T01:41:36.262Z,41.17
2023-01-31T01:44:42.316Z,45.10
2023-01-31T01:47:47.864Z,35.53
2023-01-31T01:50:26.725Z,39.75
2023-01-31T01:53:07.073Z,40.22
2023-01-31T01:55:37.975Z,36.13
2023-01-31T01:58:10.345Z,40.35
2023-01-31T02:00:38.544Z,32.78
2023-01-31T02:03:08.251Z,36.35
2023-01-31T02:05:42.677Z,35.38
2023-01-31T02:08:10.462Z,35.85
2023-01-31T02:10:58.233Z,45.53
2023-01-31T02:13:26.134Z,41.15
2023-01-31T02:15:53.512Z,47.08
2023-01-31T02:18:21.463Z,41.50
2023-01-31T02:21:00.932Z,49.88
2023-01-31T02:23:57.476Z,53.20
2023-01-31T02:27:06.514Z,45.80
2023-01-31T02:29:39.269Z,43.28
2023-01-31T02:32:40.917Z,39.88
2023-01-31T02:35:32.467Z,36.30
2023-01-31T02:38:09.114Z,46.33
2023-01-31T02:41:17.932Z,41.65
2023-01-31T02:44:13.486Z,43.97
2023-01-31T02:46:56.111Z,43.50
2023-01-31T02:49:43.420Z,46.65
2023-01-31T02:52:31.546Z,45.75
2023-01-31T02:55:31.643Z,43.53
2023-01-31T02:58:00.680Z,50.08
2023-01-31T03:00:29.619Z,45.03
2023-01-31T03:02:56.908Z,39.53
2023-01-31T03:05:24.837Z,43.72
2023-01-31T03:07:58.248Z,42.35
2023-01-31T03:10:54.493Z,47.80
2023-01-31T03:14:00.184Z,43.15
2023-01-31T03:16:55.443Z,51.22
2023-01-31T03:19:46.831Z,41.60
2023-01-31T03:22:18.427Z,41.55
2023-01-31T03:24:48.286Z,53.00
2023-01-31T03:27:16.818Z,43.53
2023-01-31T03:29:44.908Z,54.70
2023-01-31T03:32:24.661Z,44.13
2023-01-31T03:34:53.150Z,44.63
2023-01-31T03:37:37.306Z,57.92
2023-01-31T03:40:11.365Z,51.65
2023-01-31T03:42:38.715Z,46.28
2023-01-31T03:45:10.422Z,45.55
2023-01-31T03:47:41.213Z,47.45
2023-01-31T03:50:19.935Z,56.25
2023-01-31T03:52:52.737Z,56.42
2023-01-31T03:55:53.688Z,49.90
2023-01-31T03:58:24.755Z,49.40
2023-01-31T04:00:53.412Z,56.85
2023-01-31T04:03:26.016Z,51.15
2023-01-31T04:05:54.026Z,57.70
2023-01-31T04:08:21.524Z,51.25
2023-01-31T04:10:49.701Z,53.72
2023-01-31T04:13:17.071Z,51.33
2023-01-31T04:15:44.545Z,55.00
2023-01-31T04:18:12.074Z,54.95
2023-01-31T04:20:39.398Z,52.25
2023-01-31T04:23:06.759Z,47.65
2023-01-31T04:25:34.318Z,54.22
2023-01-31T04:28:01.688Z,50.38
2023-01-31T04:30:29.092Z,44.35
2023-01-31T04:32:56.532Z,47.10
2023-01-31T04:35:23.849Z,50.08
2023-01-31T04:37:51.131Z,45.22
2023-01-31T04:40:18.742Z,55.25
2023-01-31T04:42:46.343Z,42.85
2023-01-31T04:45:14.054Z,48.80
2023-01-31T04:47:41.531Z,52.92
2023-01-31T04:50:09.835Z,53.67
2023-01-31T04:52:37.631Z,44.22
2023-01-31T04:55:05.365Z,46.92
2023-01-31T04:57:32.889Z,60.28
2023-01-31T05:00:00.221Z,51.80
2023-01-31T05:02:27.615Z,41.28
2023-01-31T05:04:57.540Z,34.20
2023-01-31T05:07:24.907Z,41.90
2023-01-31T05:09:52.251Z,40.53
2023-01-31T05:12:19.678Z,39.03
2023-01-31T05:14:47.176Z,40.80
2023-01-31T05:17:14.491Z,43.22
2023-01-31T05:19:43.796Z,45.70
2023-01-31T05:22:11.136Z,45.85
2023-01-31T05:24:38.753Z,42.67
2023-01-31T05:27:06.024Z,44.03
2023-01-31T05:29:34.822Z,48.58
2023-01-31T05:32:03.632Z,37.70
2023-01-31T05:34:33.174Z,33.42
2023-01-31T05:37:01.631Z,33.60
2023-01-31T05:39:29.386Z,43.45
2023-01-31T05:41:57.037Z,46.17
2023-01-31T05:44:24.664Z,48.85
2023-01-31T05:46:51.994Z,35.65
2023-01-31T05:49:19.357Z,38.80
2023-01-31T05:51:46.659Z,42.55
2023-01-31T05:54:14.150Z,39.28
2023-01-31T05:56:41.735Z,39.28
2023-01-31T05:59:09.263Z,41.97
2023-01-31T06:01:36.857Z,43.22
2023-01-31T06:04:04.262Z,48.47
2023-01-31T06:06:32.094Z,40.00
2023-01-31T06:09:00.201Z,40.10
2023-01-31T06:11:27.625Z,42.97
2023-01-31T06:13:58.822Z,45.15
2023-01-31T06:16:26.446Z,40.85
2023-01-31T06:18:55.595Z,37.65
2023-01-31T06:21:23.216Z,48.78
2023-01-31T06:23:50.612Z,38.08
2023-01-31T06:26:18.061Z,42.25
2023-01-31T06:28:46.403Z,39.63
2023-01-31T06:31:14.090Z,40.72
2023-01-31T06:33:47.467Z,40.85
2023-01-31T06:36:19.289Z,46.63
2023-01-31T06:38:50.923Z,43.10
2023-01-31T06:41:19.360Z,47.70
2023-01-31T06:43:47.085Z,42.22
2023-01-31T06:46:14.859Z,42.08
2023-01-31T06:48:42.560Z,38.90
2023-01-31T06:51:10.327Z,36.28
2023-01-31T06:53:54.035Z,47.95
2023-01-31T06:56:21.659Z,49.08
2023-01-31T06:58:52.279Z,33.75
2023-01-31T07:01:27.474Z,45.75
2023-01-31T07:03:55.357Z,39.10
2023-01-31T07:06:25.156Z,42.10
2023-01-31T07:08:52.698Z,48.70
2023-01-31T07:11:20.090Z,40.85
2023-01-31T07:13:48.032Z,36.72
2023-01-31T07:16:17.046Z,38.00
2023-01-31T07:18:44.670Z,29.70
2023-01-31T07:21:12.012Z,38.78
2023-01-31T07:23:39.685Z,43.10
2023-01-31T07:26:07.224Z,35.83
2023-01-31T07:28:34.586Z,39.70
2023-01-31T07:31:06.751Z,36.47
2023-01-31T07:33:34.985Z,43.65
2023-01-31T07:36:04.971Z,37.97
2023-01-31T07:38:32.694Z,38.63
2023-01-31T07:41:06.403Z,38.50
2023-01-31T07:43:34.234Z,39.50
2023-01-31T07:46:01.657Z,54.90
2023-01-31T07:48:29.796Z,42.00
2023-01-31T07:51:01.195Z,46.92
2023-01-31T07:53:34.493Z,65.03
2023-01-31T07:56:15.519Z,40.70
2023-01-31T07:58:43.774Z,42.22
2023-01-31T08:01:41.375Z,39.58
2023-01-31T08:04:21.235Z,47.35
2023-01-31T08:06:51.383Z,36.40
2023-01-31T08:09:18.724Z,42.35
2023-01-31T08:11:46.159Z,33.33
2023-01-31T08:14:13.575Z,32.95
2023-01-31T08:16:41.063Z,42.92
2023-01-31T08:19:08.617Z,41.50
2023-01-31T08:21:35.909Z,41.13
2023-01-31T08:24:03.366Z,42.63
2023-01-31T08:26:30.964Z,54.22
2023-01-31T08:29:00.121Z,44.88
2023-01-31T08:31:28.562Z,53.30
2023-01-31T08:33:57.383Z,40.97
2023-01-31T08:36:27.141Z,45.95
2023-01-31T08:38:55.317Z,35.13
2023-01-31T08:41:24.553Z,28.40
2023-01-31T08:43:56.778Z,34.40
2023-01-31T08:46:26.915Z,36.92
2023-01-31T08:48:54.644Z,29.10
2023-01-31T08:51:22.946Z,35.17
2023-01-31T08:53:50.467Z,35.63
2023-01-31T08:56:18.210Z,38.00
2023-01-31T08:58:45.893Z,37.67
2023-01-31T09:01:15.601Z,32.47
2023-01-31T09:03:45.171Z,36.00
2023-01-31T09:06:20.542Z,32.55
2023-01-31T09:08:48.425Z,28.05
2023-01-31T09:11:19.144Z,41.50
2023-01-31T09:13:51.266Z,29.70
2023-01-31T09:16:19.445Z,36.83
2023-01-31T09:18:46.926Z,36.10
2023-01-31T09:21:17.374Z,37.40
2023-01-31T09:23:45.489Z,35.78
2023-01-31T09:26:13.770Z,35.67
2023-01-31T09:28:45.459Z,38.00
2023-01-31T09:31:15.253Z,38.53
2023-01-31T09:33:42.791Z,44.10
2023-01-31T09:36:15.544Z,37.45
2023-01-31T09:38:43.810Z,39.25
2023-01-31T09:41:39.885Z,37.53
2023-01-31T09:44:40.080Z,43.13
2023-01-31T09:47:24.812Z,36.22
2023-01-31T09:50:23.264Z,36.10
2023-01-31T09:52:51.305Z,35.90
2023-01-31T09:55:21.340Z,36.45
2023-01-31T09:58:15.114Z,32.85
2023-01-31T10:01:17.708Z,32.88
2023-01-31T10:03:57.065Z,34.00
2023-01-31T10:06:41.336Z,34.47
2023-01-31T10:09:16.168Z,37.95
2023-01-31T10:11:56.549Z,42.70
2023-01-31T10:14:39.064Z,38.63
2023-01-31T10:17:12.353Z,34.92
2023-01-31T10:19:54.366Z,33.50
2023-01-31T10:23:00.660Z,34.60
2023-01-31T10:25:33.605Z,37.47
2023-01-31T10:30:46.791Z,38.38
2023-01-31T10:33:28.306Z,27.85
2023-01-31T10:35:57.347Z,36.13
2023-01-31T10:39:03.801Z,32.67
2023-01-31T10:41:41.556Z,35.17
2023-01-31T10:44:21.584Z,30.38
2023-01-31T10:46:49.225Z,33.33
2023-01-31T10:49:23.369Z,33.83
2023-01-31T10:52:17.243Z,27.42
2023-01-31T10:54:55.945Z,38.38
2023-01-31T10:57:23.492Z,28.50
2023-01-31T10:59:51.512Z,29.90
2023-01-31T11:02:24.838Z,33.13
2023-01-31T11:04:54.626Z,37.15
2023-01-31T11:07:22.738Z,34.38
2023-01-31T11:09:53.461Z,44.72
2023-01-31T11:12:22.163Z,30.65
2023-01-31T11:15:19.084Z,36.78
2023-01-31T11:17:47.208Z,32.80
2023-01-31T11:20:30.520Z,31.55
2023-01-31T11:22:59.396Z,34.50
2023-01-31T11:25:28.539Z,40.28
2023-01-31T11:27:59.246Z,33.15
2023-01-31T11:30:29.887Z,39.05
2023-01-31T11:32:59.049Z,33.50
2023-01-31T11:35:29.354Z,34.28
2023-01-31T11:38:02.997Z,36.88
2023-01-31T11:40:33.848Z,33.53
2023-01-31T11:43:03.660Z,48.53
2023-01-31T11:45:44.961Z,31.88
2023-01-31T11:48:19.245Z,34.85
2023-01-31T11:50:56.832Z,34.25
2023-01-31T11:54:00.034Z,32.15
2023-01-31T11:56:29.241Z,40.65
2023-01-31T11:59:03.638Z,32.00
2023-01-31T12:01:31.510Z,29.02
2023-01-31T12:04:04.742Z,33.13
2023-01-31T12:06:34.925Z,26.45
2023-01-31T12:09:07.355Z,32.97
2023-01-31T12:11:36.208Z,34.38
2023-01-31T12:14:16.567Z,33.45
2023-01-31T12:16:45.868Z,30.60
2023-01-31T12:19:19.703Z,39.33
2023-01-31T12:21:56.193Z,38.47
2023-01-31T12:24:54.516Z,32.08
2023-01-31T12:27:30.938Z,37.33
2023-01-31T12:30:23.254Z,37.35
2023-01-31T12:33:11.529Z,35.08
2023-01-31T12:36:04.237Z,32.08
2023-01-31T12:38:53.007Z,35.65
2023-01-31T12:41:39.855Z,32.08
2023-01-31T12:44:21.476Z,36.28
2023-01-31T12:47:09.960Z,36.25
2023-01-31T12:50:05.930Z,36.10
2023-01-31T12:52:45.402Z,34.22
2023-01-31T12:55:31.400Z,32.13
2023-01-31T12:58:11.081Z,28.10
2023-01-31T13:00:51.187Z,34.40
2023-01-31T13:03:56.132Z,31.17
2023-01-31T13:06:30.159Z,26.92
2023-01-31T13:09:09.006Z,36.60
2023-01-31T13:11:58.245Z,32.63
2023-01-31T13:14:28.362Z,33.10
2023-01-31T13:17:00.224Z,30.00
2023-01-31T13:19:44.590Z,31.15
2023-01-31T13:22:22.323Z,30.38
2023-01-31T13:24:56.383Z,26.10
2023-01-31T13:27:41.080Z,29.30
2023-01-31T13:30:33.253Z,30.90
2023-01-31T13:33:01.680Z,29.58
2023-01-31T13:35:41.291Z,30.27
2023-01-31T13:38:14.400Z,29.35
2023-01-31T13:40:55.383Z,29.20
2023-01-31T13:43:22.898Z,22.55
2023-01-31T13:45:55.481Z,26.40
2023-01-31T13:48:28.954Z,27.08
2023-01-31T13:51:11.614Z,26.90
2023-01-31T13:53:52.408Z,37.70
2023-01-31T13:56:25.134Z,28.45
2023-01-31T13:58:54.376Z,23.73
2023-01-31T14:01:32.916Z,27.05
2023-01-31T14:04:14.854Z,26.98
2023-01-31T14:06:58.843Z,26.38
2023-01-31T14:09:29.639Z,25.50
2023-01-31T14:11:59.228Z,25.85
2023-01-31T14:14:41.850Z,28.92
2023-01-31T14:17:14.650Z,30.58
2023-01-31T14:19:47.780Z,28.17
2023-01-31T14:22:34.376Z,21.95
2023-01-31T14:25:09.223Z,25.48
2023-01-31T14:27:39.661Z,29.48
2023-01-31T14:30:07.203Z,32.58
2023-01-31T14:33:08.460Z,28.77
2023-01-31T14:35:56.545Z,35.85
2023-01-31T14:38:35.973Z,28.58
2023-01-31T14:41:18.760Z,27.05
2023-01-31T14:44:02.619Z,27.55
2023-01-31T14:47:06.642Z,26.25
2023-01-31T14:50:14.836Z,30.65
2023-01-31T14:52:47.045Z,33.85
2023-01-31T14:55:34.106Z,25.05
2023-01-31T14:58:03.148Z,22.60
2023-01-31T15:00:38.976Z,28.20
2023-01-31T15:03:20.737Z,30.30
2023-01-31T15:06:07.649Z,25.70
2023-01-31T15:08:46.348Z,30.02
2023-01-31T15:11:40.774Z,25.52
2023-01-31T15:14:36.841Z,26.77
2023-01-31T15:17:36.325Z,25.63
2023-01-31T15:20:51.516Z,30.45
2023-01-31T15:25:51.422Z,26.52
2023-01-31T15:28:38.638Z,30.70
2023-01-31T15:31:13.642Z,24.67
2023-01-31T15:33:46.012Z,27.77
2023-01-31T15:36:38.933Z,26.77
2023-01-31T15:39:29.703Z,32.67
2023-01-31T15:41:57.106Z,23.05
2023-01-31T15:44:29.279Z,26.83
2023-01-31T15:47:03.503Z,30.30
2023-01-31T15:49:41.045Z,31.52
2023-01-31T15:52:22.776Z,27.85
2023-01-31T15:54:55.990Z,33.75
2023-01-31T15:57:33.491Z,27.42
2023-01-31T16:00:00.937Z,33.03
2023-01-31T16:02:31.076Z,31.60
2023-01-31T16:04:58.804Z,26.50
2023-01-31T16:07:29.396Z,29.33
2023-01-31T16:09:58.359Z,27.48
2023-01-31T16:12:26.268Z,29.58
2023-01-31T16:14:59.380Z,29.55
2023-01-31T16:17:30.190Z,26.90
2023-01-31T16:19:58.329Z,28.48
2023-01-31T16:22:29.169Z,22.17
2023-01-31T16:25:00.833Z,32.05
2023-01-31T16:27:35.246Z,28.45
2023-01-31T16:30:03.115Z,35.78
2023-01-31T16:32:37.154Z,28.83
2023-01-31T16:35:07.566Z,30.67
2023-01-31T16:37:36.447Z,24.95
2023-01-31T16:40:20.481Z,24.52
2023-01-31T16:42:48.267Z,32.97
2023-01-31T16:45:30.402Z,27.98
2023-01-31T16:48:27.724Z,23.23
2023-01-31T16:50:56.817Z,36.30
2023-01-31T16:53:33.291Z,34.13
2023-01-31T16:56:20.397Z,32.40
2023-01-31T16:58:56.574Z,35.35
2023-01-31T17:01:34.764Z,29.33
2023-01-31T17:04:06.607Z,29.17
2023-01-31T17:06:34.805Z,29.33
2023-01-31T17:09:05.196Z,33.15
2023-01-31T17:11:42.293Z,28.17
2023-01-31T17:14:10.696Z,30.63
2023-01-31T17:16:38.113Z,28.85
2023-01-31T17:19:05.542Z,31.67
2023-01-31T17:21:38.532Z,35.67
2023-01-31T17:24:06.115Z,24.52
2023-01-31T17:26:33.593Z,26.50
2023-01-31T17:29:02.543Z,30.88
2023-01-31T17:31:31.447Z,26.80
2023-01-31T17:33:59.129Z,35.70
2023-01-31T17:36:26.591Z,35.17
2023-01-31T17:39:00.855Z,31.83
2023-01-31T17:41:28.653Z,31.60
2023-01-31T17:43:56.002Z,42.78
2023-01-31T17:46:23.638Z,42.80
2023-01-31T17:48:51.144Z,40.13
2023-01-31T17:51:18.681Z,42.55
2023-01-31T17:53:50.362Z,38.53
2023-01-31T17:56:19.028Z,39.38
2023-01-31T17:58:46.739Z,38.65
2023-01-31T18:01:14.471Z,30.95
2023-01-31T18:03:42.267Z,39.92
2023-01-31T18:06:10.951Z,33.83
2023-01-31T18:08:38.486Z,40.88
2023-01-31T18:11:11.531Z,36.15
2023-01-31T18:13:39.085Z,33.03
2023-01-31T18:16:08.364Z,29.85
2023-01-31T18:18:37.061Z,39.38
2023-01-31T18:21:05.507Z,37.15
2023-01-31T18:23:33.091Z,31.00
2023-01-31T18:26:00.939Z,30.70
2023-01-31T18:28:28.615Z,33.20
2023-01-31T18:31:00.508Z,35.95
2023-01-31T18:33:27.943Z,35.97
2023-01-31T18:35:59.462Z,31.85
2023-01-31T18:38:27.902Z,28.25
2023-01-31T18:40:55.999Z,41.20
2023-01-31T18:43:24.099Z,33.35
2023-01-31T18:45:51.448Z,33.10
2023-01-31T18:48:19.309Z,40.28
2023-01-31T18:50:48.463Z,34.85
2023-01-31T18:53:15.766Z,40.47
2023-01-31T18:55:43.754Z,33.13
2023-01-31T18:58:11.407Z,40.03
2023-01-31T19:00:38.796Z,38.28
2023-01-31T19:03:06.261Z,33.60
2023-01-31T19:05:33.645Z,30.77
2023-01-31T19:08:01.115Z,34.20
2023-01-31T19:10:28.592Z,36.53
2023-01-31T19:12:55.965Z,40.80
2023-01-31T19:15:23.768Z,31.23
2023-01-31T19:17:51.931Z,39.00
2023-01-31T19:20:19.453Z,35.75
2023-01-31T19:22:48.441Z,37.15
2023-01-31T19:25:15.899Z,30.00
2023-01-31T19:27:46.103Z,34.28
2023-01-31T19:30:14.084Z,30.33
2023-01-31T19:32:41.452Z,34.78
2023-01-31T19:35:09.244Z,48.85
2023-01-31T19:37:36.765Z,38.55
2023-01-31T19:40:11.008Z,31.77
2023-01-31T19:42:40.842Z,34.08
2023-01-31T19:45:11.538Z,38.42
2023-01-31T19:47:45.607Z,42.22
2023-01-31T19:50:12.913Z,41.03
2023-01-31T19:52:40.334Z,32.25
2023-01-31T19:55:18.297Z,38.85
2023-01-31T19:57:46.424Z,30.77
2023-01-31T20:00:14.430Z,38.78
2023-01-31T20:02:43.154Z,38.97
2023-01-31T20:05:13.601Z,32.50
2023-01-31T20:07:44.781Z,36.42
2023-01-31T20:10:13.701Z,37.30
2023-01-31T20:12:41.135Z,43.85
2023-01-31T20:15:08.996Z,44.65
2023-01-31T20:17:36.377Z,46.15
2023-01-31T20:20:04.765Z,32.85
2023-01-31T20:22:32.199Z,30.20
2023-01-31T20:25:00.993Z,32.35
2023-01-31T20:27:28.413Z,39.17
2023-01-31T20:29:55.850Z,38.97
2023-01-31T20:32:23.160Z,29.45
2023-01-31T20:34:50.496Z,29.17
2023-01-31T20:37:17.906Z,45.60
2023-01-31T20:39:45.241Z,38.53
2023-01-31T20:42:12.815Z,35.95
2023-01-31T20:44:42.478Z,39.33
2023-01-31T20:47:09.864Z,33.95
2023-01-31T20:49:37.353Z,33.28
2023-01-31T20:52:04.950Z,37.08
2023-01-31T20:54:32.715Z,34.25
2023-01-31T20:57:00.197Z,36.03
2023-01-31T20:59:27.513Z,35.00
2023-01-31T21:01:54.872Z,31.42
2023-01-31T21:04:22.220Z,30.85
2023-01-31T21:06:49.832Z,33.60
2023-01-31T21:09:17.208Z,36.15
2023-01-31T21:11:44.544Z,29.02
2023-01-31T21:14:12.083Z,27.63
2023-01-31T21:16:39.464Z,30.88
2023-01-31T21:19:06.812Z,39.60
2023-01-31T21:21:34.255Z,22.63
2023-01-31T21:24:05.290Z,26.48
2023-01-31T21:26:32.805Z,27.65
2023-01-31T21:29:03.578Z,31.33
2023-01-31T21:31:31.673Z,25.38
2023-01-31T21:34:04.644Z,23.90
2023-01-31T21:39:00.743Z,27.95
2023-01-31T21:41:46.788Z,24.15
2023-01-31T21:44:14.116Z,25.33
2023-01-31T21:46:41.564Z,21.38
2023-01-31T21:49:09.078Z,22.80
2023-01-31T21:51:36.875Z,28.33
2023-01-31T21:54:04.510Z,36.78
2023-01-31T21:56:31.929Z,37.33
2023-01-31T21:58:59.575Z,22.80
2023-01-31T22:01:32.268Z,33.35
2023-01-31T22:04:00.343Z,29.00
2023-01-31T22:06:31.658Z,32.30
2023-01-31T22:09:00.588Z,33.13
2023-01-31T22:11:33.019Z,28.52
2023-01-31T22:14:01.683Z,26.02
2023-01-31T22:16:29.247Z,31.08
2023-01-31T22:18:56.614Z,32.90
2023-01-31T22:21:26.626Z,31.25
2023-01-31T22:23:56.748Z,28.58
2023-01-31T22:26:26.197Z,34.75
2023-01-31T22:28:55.918Z,33.30
2023-01-31T22:31:23.692Z,26.17
2023-01-31T22:33:51.549Z,23.92
2023-01-31T22:36:19.576Z,30.20
2023-01-31T22:38:46.982Z,26.70
2023-01-31T22:41:17.153Z,27.95
2023-01-31T22:43:48.217Z,25.43
2023-01-31T22:46:18.253Z,26.77
2023-01-31T22:48:49.646Z,31.70
2023-01-31T22:51:22.085Z,29.23
2023-01-31T22:53:50.321Z,32.85
2023-01-31T22:56:28.422Z,28.05
2023-01-31T22:58:57.701Z,27.88
2023-01-31T23:01:27.069Z,28.25
2023-01-31T23:03:58.995Z,35.00
2023-01-31T23:06:27.261Z,23.13
2023-01-31T23:08:55.214Z,33.55
2023-01-31T23:11:24.336Z,26.20
2023-01-31T23:13:51.806Z,37.40
2023-01-31T23:16:43.166Z,36.05
2023-01-31T23:19:10.906Z,37.55
2023-01-31T23:21:42.697Z,39.75
2023-01-31T23:24:14.919Z,28.35
2023-01-31T23:26:42.733Z,36.30
2023-01-31T23:29:10.197Z,27.35
2023-01-31T23:31:37.584Z,39.83
2023-01-31T23:34:07.212Z,28.00
2023-01-31T23:36:34.627Z,38.53
2023-01-31T23:39:01.920Z,34.67
2023-01-31T23:41:29.327Z,31.10
2023-01-31T23:43:56.617Z,35.92
2023-01-31T23:46:23.996Z,41.08
2023-01-31T23:48:51.429Z,29.55
2023-01-31T23:51:19.353Z,39.30
2023-01-31T23:53:46.712Z,40.80
2023-01-31T23:56:14.050Z,37.20
2023-01-31T23:58:41.345Z,32.22
